Wilmington, North Carolina
Current Conditions -  °F | °C
As of 2:53 PM on Friday 28 Nov 2014 (Local Time) from KILM Reporting Station
Clear Clear  
Wind Chill: 44°   Ceiling: Unl
Heat Index: 47°   Visibility: 10mi
Dew Point: 21°   Wind: 7mph
Humidity: 36%   Direction: 320°NW
Pressure: 30.28"   Gusts: NA
Location:  34.24°N, 77.94°W
Report Text: KILM 281953Z 32006KT 10SM CLR 08/M06 A3028 RMK AO2 SLP254 T00831061
Loading
Personal Weather Stations






























Interactive Weather Map New forecast layout! Learn more

10-Day Weather Forecast

Advertisements
Track Severe Weather on mobile